Time;durP1;ratioP1;P1;durP2;ratioP2;P2;SDS_P1;SDS_P2;PMS_P1;PMS_P2;Temp;Humidity;BMP_temperature;BMP_pressure;BME280_temperature;BME280_humidity;BME280_pressure;Samples;Min_cycle;Max_cycle;Signal;HPM_P1;HPM_P2
2022/08/30 00:01:01;;;;;;;2.47;1.55;;;21.50;64.70;;;;;;4959132;29;20229;-72
2022/08/30 00:03:30;;;;;;;4.97;2.33;;;21.40;64.70;;;;;;4956232;29;20205;-70
2022/08/30 00:05:58;;;;;;;2.45;1.67;;;21.40;64.80;;;;;;4979076;28;20217;-72
2022/08/30 00:08:24;;;;;;;2.60;1.73;;;21.30;64.80;;;;;;4968354;28;20188;-76
2022/08/30 00:10:50;;;;;;;3.15;1.60;;;21.30;65.00;;;;;;4950032;29;20177;-76
2022/08/30 00:13:16;;;;;;;2.30;1.45;;;21.20;64.90;;;;;;4954696;29;20177;-73
2022/08/30 00:15:45;;;;;;;2.45;1.75;;;21.20;65.10;;;;;;4955714;29;20196;-73
2022/08/30 00:18:10;;;;;;;1.80;1.40;;;21.10;65.20;;;;;;4944420;29;20186;-76
2022/08/30 00:20:39;;;;;;;2.60;1.70;;;21.10;65.30;;;;;;4944927;29;20201;-74
2022/08/30 00:23:05;;;;;;;2.00;1.38;;;21.00;65.40;;;;;;4966330;29;20357;-75
2022/08/30 00:25:33;;;;;;;3.13;1.60;;;21.00;65.50;;;;;;4954697;28;20212;-69
2022/08/30 00:27:59;;;;;;;1.85;1.48;;;21.00;65.60;;;;;;4940198;29;20182;-74
2022/08/30 00:30:25;;;;;;;4.65;1.65;;;20.90;65.50;;;;;;4970600;28;20197;-74
2022/08/30 00:32:51;;;;;;;2.85;1.85;;;20.90;65.70;;;;;;4973832;29;20240;-71
2022/08/30 00:35:19;;;;;;;3.58;1.70;;;20.80;65.90;;;;;;4956520;29;20189;-73
2022/08/30 00:37:47;;;;;;;2.88;1.65;;;20.70;66.20;;;;;;4954349;29;20200;-72
2022/08/30 00:40:19;;;;;;;4.25;1.98;;;20.70;66.00;;;;;;4951350;29;20173;-74
2022/08/30 00:42:48;;;;;;;2.10;1.45;;;20.60;66.20;;;;;;4966161;29;20182;-75
2022/08/30 00:45:19;;;;;;;2.33;1.50;;;20.50;66.20;;;;;;4956913;28;20229;-74
2022/08/30 00:47:45;;;;;;;4.53;2.13;;;20.50;66.50;;;;;;4973029;28;20189;-72
2022/08/30 00:50:15;;;;;;;2.53;1.60;;;20.50;66.70;;;;;;4971880;28;20278;-74
2022/08/30 00:52:47;;;;;;;2.13;1.70;;;20.40;66.90;;;;;;4951184;29;20196;-74
2022/08/30 00:55:14;;;;;;;2.65;1.70;;;20.40;67.60;;;;;;4967994;28;20178;-72
2022/08/30 00:57:43;;;;;;;2.50;1.70;;;20.30;67.30;;;;;;4952584;29;20177;-73
2022/08/30 01:00:12;;;;;;;2.67;1.90;;;20.30;67.90;;;;;;4957564;29;20178;-73
2022/08/30 01:02:38;;;;;;;5.35;1.80;;;20.20;67.80;;;;;;4959787;29;20197;-75
2022/08/30 01:05:07;;;;;;;2.85;1.70;;;20.10;67.60;;;;;;4956155;29;20268;-72
2022/08/30 01:07:36;;;;;;;3.58;1.65;;;20.10;67.90;;;;;;4974206;29;20177;-74
2022/08/30 01:10:04;;;;;;;3.38;1.77;;;20.10;69.00;;;;;;4973949;28;20177;-71
2022/08/30 01:12:34;;;;;;;3.22;1.88;;;20.10;68.40;;;;;;4951345;28;20201;-73
2022/08/30 01:15:01;;;;;;;3.20;2.00;;;20.10;68.70;;;;;;4974948;28;20272;-74
2022/08/30 01:17:28;;;;;;;2.92;2.25;;;20.10;69.10;;;;;;4953375;29;20188;-75
2022/08/30 01:19:59;;;;;;;2.88;1.98;;;20.10;69.40;;;;;;4968938;28;20181;-74
2022/08/30 01:22:43;;;;;;;2.95;1.75;;;20.00;69.80;;;;;;4956421;28;20246;-69
2022/08/30 01:25:11;;;;;;;3.03;1.90;;;20.00;70.30;;;;;;4968805;28;20249;-73
2022/08/30 01:27:42;;;;;;;2.60;1.92;;;20.00;69.90;;;;;;4956858;28;20196;-73
2022/08/30 01:30:08;;;;;;;3.13;2.00;;;19.90;70.10;;;;;;4949721;29;20197;-74
2022/08/30 01:32:39;;;;;;;2.45;1.67;;;19.90;70.00;;;;;;4973893;28;20201;-70
2022/08/30 01:35:08;;;;;;;3.70;1.77;;;19.90;70.40;;;;;;4948307;28;20206;-72
2022/08/30 01:37:35;;;;;;;3.30;1.90;;;19.90;70.40;;;;;;4970284;28;20233;-73
2022/08/30 01:40:01;;;;;;;2.55;1.77;;;19.90;70.40;;;;;;4956014;29;20182;-72
2022/08/30 01:42:32;;;;;;;3.05;1.80;;;19.90;70.50;;;;;;4953757;29;20186;-73
2022/08/30 01:44:58;;;;;;;3.38;1.90;;;19.80;70.80;;;;;;4948694;29;20201;-75
2022/08/30 01:47:28;;;;;;;3.50;1.90;;;19.80;71.00;;;;;;4966114;29;20217;-70
2022/08/30 01:49:54;;;;;;;2.63;2.03;;;19.80;71.60;;;;;;4956404;28;20189;-72
2022/08/30 01:52:23;;;;;;;2.80;1.90;;;19.80;71.50;;;;;;4966155;28;20220;-74
2022/08/30 01:54:51;;;;;;;3.08;2.00;;;19.70;71.90;;;;;;4973306;28;20241;-74
2022/08/30 01:57:20;;;;;;;3.53;2.15;;;19.70;71.80;;;;;;4972680;28;20186;-72
2022/08/30 01:59:49;;;;;;;4.53;1.80;;;19.70;72.40;;;;;;4956100;29;20231;-70
2022/08/30 02:02:18;;;;;;;2.70;1.83;;;19.70;72.60;;;;;;4950625;29;20181;-68
2022/08/30 02:04:44;;;;;;;3.38;1.70;;;19.60;72.50;;;;;;4956884;28;20209;-73
2022/08/30 02:07:11;;;;;;;2.55;2.03;;;19.60;72.50;;;;;;4968101;29;20194;-74
2022/08/30 02:09:37;;;;;;;2.53;1.80;;;19.60;72.70;;;;;;4953179;28;20205;-73
2022/08/30 02:12:06;;;;;;;2.40;1.70;;;19.50;72.90;;;;;;4971522;28;20196;-74
2022/08/30 02:14:34;;;;;;;2.50;1.65;;;19.50;73.30;;;;;;4948095;29;20205;-74
2022/08/30 02:17:01;;;;;;;2.17;1.80;;;19.50;74.20;;;;;;4955850;29;20166;-72
2022/08/30 02:19:27;;;;;;;3.58;1.90;;;19.50;73.70;;;;;;4957140;29;20189;-74
2022/08/30 02:21:55;;;;;;;3.88;2.03;;;19.50;74.00;;;;;;4966699;28;20231;-71
2022/08/30 02:24:21;;;;;;;2.55;1.80;;;19.50;74.30;;;;;;4954002;29;20161;-73
2022/08/30 02:26:47;;;;;;;3.97;2.10;;;19.50;74.40;;;;;;4966941;28;20201;-70
2022/08/30 02:29:13;;;;;;;4.47;2.38;;;19.50;74.40;;;;;;4970333;28;20221;-74
2022/08/30 02:31:39;;;;;;;3.92;2.10;;;19.50;74.90;;;;;;4957152;28;20180;-72
2022/08/30 02:34:05;;;;;;;2.65;2.00;;;19.50;75.00;;;;;;4961636;28;20174;-71
2022/08/30 02:36:33;;;;;;;2.80;1.85;;;19.50;75.40;;;;;;4952838;28;20205;-74
2022/08/30 02:39:01;;;;;;;3.08;1.90;;;19.50;75.50;;;;;;4970081;28;20252;-70
2022/08/30 02:41:29;;;;;;;3.10;1.83;;;19.50;75.80;;;;;;4971294;29;22003;-69
2022/08/30 02:43:57;;;;;;;3.72;2.15;;;19.50;75.90;;;;;;4967287;28;20181;-71
2022/08/30 02:46:23;;;;;;;3.50;2.25;;;19.50;76.00;;;;;;4955746;29;20319;-71
2022/08/30 02:48:49;;;;;;;2.67;1.95;;;19.50;76.10;;;;;;5149305;23;20224;-66
2022/08/30 02:51:14;;;;;;;2.70;1.90;;;19.50;76.40;;;;;;4950886;29;20188;-67
2022/08/30 02:53:42;;;;;;;4.68;2.15;;;19.40;76.30;;;;;;4966252;28;20185;-68
2022/08/30 02:56:11;;;;;;;2.97;2.03;;;19.50;76.80;;;;;;4943713;29;20217;-67
2022/08/30 02:58:38;;;;;;;3.38;2.10;;;19.40;76.90;;;;;;4946008;29;20201;-67
2022/08/30 03:01:11;;;;;;;2.65;1.85;;;19.40;77.10;;;;;;4951872;29;20242;-64
2022/08/30 03:03:39;;;;;;;3.08;2.05;;;19.30;77.20;;;;;;4950962;29;20188;-67
2022/08/30 03:06:05;;;;;;;3.20;2.10;;;19.30;77.40;;;;;;4944639;29;20202;-69
2022/08/30 03:08:33;;;;;;;2.80;1.95;;;19.30;77.70;;;;;;4943980;29;20222;-70
2022/08/30 03:11:02;;;;;;;3.92;2.15;;;19.20;77.80;;;;;;4949197;29;20171;-66
2022/08/30 03:13:28;;;;;;;2.75;2.00;;;19.20;78.60;;;;;;4943676;29;20235;-65
2022/08/30 03:15:56;;;;;;;3.47;2.05;;;19.20;78.40;;;;;;4948203;29;20280;-67
2022/08/30 03:18:23;;;;;;;2.60;1.83;;;19.10;78.50;;;;;;4933540;29;20253;-70
2022/08/30 03:20:51;;;;;;;2.88;1.85;;;19.10;78.70;;;;;;4939625;29;20185;-69
2022/08/30 03:23:20;;;;;;;2.70;2.00;;;19.10;79.00;;;;;;4947868;29;20187;-69
2022/08/30 03:25:48;;;;;;;5.25;2.58;;;19.10;79.20;;;;;;4948362;29;20217;-69
2022/08/30 03:28:15;;;;;;;17.33;13.23;;;19.00;79.20;;;;;;4960890;29;20178;-69
2022/08/30 03:30:41;;;;;;;8.60;6.22;;;19.00;79.50;;;;;;4964937;29;20173;-69
2022/08/30 03:33:07;;;;;;;5.28;4.00;;;19.00;79.80;;;;;;4969007;29;20191;-69
2022/08/30 03:35:32;;;;;;;5.30;3.40;;;19.00;80.10;;;;;;4946303;29;20196;-69
2022/08/30 03:38:00;;;;;;;4.25;2.80;;;19.00;80.40;;;;;;4949637;29;20188;-68
2022/08/30 03:40:28;;;;;;;5.97;3.08;;;19.00;80.70;;;;;;4940991;29;20178;-69
2022/08/30 03:42:54;;;;;;;5.18;3.33;;;19.00;81.10;;;;;;4949657;29;20181;-70
2022/08/30 03:45:19;;;;;;;5.85;3.85;;;19.00;80.80;;;;;;4939182;29;20198;-67
2022/08/30 03:47:46;;;;;;;4.43;3.25;;;18.90;80.90;;;;;;4941302;29;20205;-68
2022/08/30 03:50:15;;;;;;;3.42;2.33;;;18.90;81.70;;;;;;4944470;29;20241;-69
2022/08/30 03:52:44;;;;;;;4.25;2.53;;;18.90;81.70;;;;;;4946689;29;20174;-69
2022/08/30 03:55:14;;;;;;;3.38;2.20;;;18.90;81.30;;;;;;4939110;29;20185;-70
2022/08/30 03:57:41;;;;;;;3.47;2.20;;;18.90;81.80;;;;;;4943171;29;20182;-69
2022/08/30 04:00:07;;;;;;;4.00;2.70;;;18.90;81.40;;;;;;4944285;29;20186;-68
2022/08/30 04:02:33;;;;;;;4.18;2.55;;;18.80;81.60;;;;;;4945301;29;20278;-69
2022/08/30 04:04:58;;;;;;;4.18;2.50;;;18.90;81.80;;;;;;4940798;29;20248;-69
2022/08/30 04:07:24;;;;;;;3.92;2.13;;;18.80;81.90;;;;;;4951570;29;20188;-70
2022/08/30 04:09:52;;;;;;;4.63;2.58;;;18.80;82.70;;;;;;4951086;29;20194;-66
2022/08/30 04:12:18;;;;;;;2.95;2.08;;;18.80;82.60;;;;;;4953226;29;20189;-68
2022/08/30 04:14:46;;;;;;;4.03;2.17;;;18.80;82.30;;;;;;4952268;29;20178;-68
2022/08/30 04:17:14;;;;;;;5.80;3.40;;;18.80;82.80;;;;;;4951704;29;20269;-69
2022/08/30 04:19:42;;;;;;;3.83;2.47;;;18.70;82.20;;;;;;4955026;29;20204;-69
2022/08/30 04:22:07;;;;;;;6.07;3.75;;;18.70;82.90;;;;;;4956131;29;20214;-70
2022/08/30 04:24:37;;;;;;;4.95;3.30;;;18.70;82.70;;;;;;4954487;29;20182;-69
2022/08/30 04:27:03;;;;;;;6.53;4.18;;;18.60;82.90;;;;;;4951810;29;20182;-68
2022/08/30 04:29:29;;;;;;;7.35;3.75;;;18.60;83.00;;;;;;4947135;29;20540;-69
2022/08/30 04:31:57;;;;;;;4.50;3.00;;;18.60;83.20;;;;;;4939001;29;20186;-68
2022/08/30 04:34:27;;;;;;;6.13;3.10;;;18.50;83.30;;;;;;4963451;28;20219;-70
2022/08/30 04:36:55;;;;;;;4.97;3.15;;;18.50;84.10;;;;;;4940312;29;20181;-70
2022/08/30 04:39:21;;;;;;;6.25;2.70;;;18.60;83.90;;;;;;4934994;29;20321;-71
2022/08/30 04:41:49;;;;;;;3.58;2.50;;;18.50;84.10;;;;;;4954372;29;20201;-70
2022/08/30 04:44:14;;;;;;;3.53;2.25;;;18.50;84.30;;;;;;4937131;29;20181;-70
2022/08/30 04:46:40;;;;;;;2.80;2.20;;;18.50;84.40;;;;;;4946279;29;20207;-71
2022/08/30 04:49:08;;;;;;;3.75;2.03;;;18.50;84.60;;;;;;4950317;29;20194;-68
2022/08/30 04:51:36;;;;;;;4.65;2.30;;;18.50;84.70;;;;;;4950395;29;20188;-69
2022/08/30 04:54:01;;;;;;;4.53;2.50;;;18.50;84.90;;;;;;4951322;29;20212;-69
2022/08/30 04:56:29;;;;;;;3.47;2.42;;;18.40;85.00;;;;;;4964045;28;20190;-76
2022/08/30 04:58:57;;;;;;;5.90;2.40;;;18.40;85.10;;;;;;4952280;29;20181;-70
2022/08/30 05:01:26;;;;;;;4.63;2.30;;;18.40;85.80;;;;;;4950048;29;20232;-72
2022/08/30 05:03:53;;;;;;;4.20;2.15;;;18.40;85.90;;;;;;4968964;29;20204;-72
2022/08/30 05:06:22;;;;;;;3.42;2.03;;;18.30;85.80;;;;;;4942202;29;20228;-73
2022/08/30 05:08:48;;;;;;;4.03;2.35;;;18.30;86.00;;;;;;4958251;29;20241;-73
2022/08/30 05:11:16;;;;;;;6.43;2.80;;;18.40;86.40;;;;;;4952301;29;20209;-73
2022/08/30 05:13:43;;;;;;;5.03;2.92;;;18.30;86.90;;;;;;4962812;29;20197;-72
2022/08/30 05:16:09;;;;;;;7.47;3.10;;;18.30;86.90;;;;;;4954078;29;20438;-73
2022/08/30 05:18:35;;;;;;;6.22;3.00;;;18.30;87.10;;;;;;4951278;29;20508;-75
2022/08/30 05:21:13;;;;;;;8.30;3.90;;;18.30;87.50;;;;;;4950557;29;20209;-74
2022/08/30 05:23:39;;;;;;;7.20;3.63;;;18.20;87.60;;;;;;4947360;29;20268;-74
2022/08/30 05:26:19;;;;;;;7.22;4.68;;;18.20;87.50;;;;;;4962321;29;20198;-75
2022/08/30 05:28:48;;;;;;;9.88;5.38;;;18.20;87.90;;;;;;4947869;29;20180;-73
2022/08/30 05:31:20;;;;;;;7.03;4.53;;;18.20;87.90;;;;;;4948032;29;20180;-70
2022/08/30 05:33:48;;;;;;;6.25;4.00;;;18.20;88.50;;;;;;4945883;29;20266;-73
2022/08/30 05:36:19;;;;;;;9.80;3.80;;;18.20;88.40;;;;;;4937787;29;20186;-73
2022/08/30 05:38:47;;;;;;;13.25;3.95;;;18.20;88.70;;;;;;4954194;29;20201;-72
2022/08/30 05:41:13;;;;;;;9.18;3.05;;;18.20;88.70;;;;;;4949177;29;20331;-73
2022/08/30 05:43:41;;;;;;;5.28;3.03;;;18.20;88.80;;;;;;4962604;29;20173;-73
2022/08/30 05:46:13;;;;;;;5.22;2.92;;;18.20;88.80;;;;;;4948210;29;20206;-72
2022/08/30 05:48:39;;;;;;;6.88;2.58;;;18.20;89.30;;;;;;4940313;29;20228;-70
2022/08/30 05:51:11;;;;;;;6.68;2.72;;;18.20;89.30;;;;;;4946409;29;20201;-74
2022/08/30 05:53:38;;;;;;;6.15;2.78;;;18.20;90.20;;;;;;4950014;29;20241;-72
2022/08/30 05:56:09;;;;;;;5.10;2.70;;;18.30;89.50;;;;;;4958077;28;20192;-73
2022/08/30 05:58:38;;;;;;;8.07;3.10;;;18.30;89.80;;;;;;4939147;29;20174;-72
2022/08/30 06:01:04;;;;;;;9.88;2.60;;;18.30;90.00;;;;;;4953497;29;20209;-73
2022/08/30 06:03:33;;;;;;;5.78;2.10;;;18.30;89.80;;;;;;4962527;29;20209;-72
2022/08/30 06:05:59;;;;;;;4.20;2.25;;;18.30;90.10;;;;;;4942769;29;20196;-73
2022/08/30 06:08:25;;;;;;;4.72;2.50;;;18.30;90.00;;;;;;4941592;29;20431;-72
2022/08/30 06:10:54;;;;;;;4.07;2.13;;;18.40;90.10;;;;;;4943288;29;20170;-74
2022/08/30 06:13:22;;;;;;;4.40;2.50;;;18.40;90.30;;;;;;4962340;29;20189;-73
2022/08/30 06:15:51;;;;;;;3.88;2.45;;;18.40;90.40;;;;;;4940627;29;20192;-73
2022/08/30 06:18:17;;;;;;;4.30;2.30;;;18.50;90.40;;;;;;4946210;29;20201;-73
2022/08/30 06:20:47;;;;;;;3.75;2.33;;;18.50;90.30;;;;;;4945053;29;20293;-73
2022/08/30 06:23:16;;;;;;;4.47;2.30;;;18.50;90.50;;;;;;4944108;29;20240;-71
2022/08/30 06:25:43;;;;;;;4.57;2.17;;;18.60;90.50;;;;;;4928838;29;20307;-73
2022/08/30 06:28:09;;;;;;;6.28;2.50;;;18.60;90.60;;;;;;4946471;29;20197;-73
2022/08/30 06:30:34;;;;;;;4.82;2.35;;;18.60;90.60;;;;;;4954743;29;20202;-73
2022/08/30 06:33:00;;;;;;;5.15;2.47;;;18.60;90.60;;;;;;4955246;28;20217;-73
2022/08/30 06:35:27;;;;;;;3.40;2.53;;;18.70;90.80;;;;;;4945005;29;20189;-73
2022/08/30 06:37:54;;;;;;;3.25;2.47;;;18.70;90.90;;;;;;4945519;29;20177;-74
2022/08/30 06:40:21;;;;;;;3.67;2.40;;;18.80;91.10;;;;;;4944221;29;20244;-71
2022/08/30 06:42:50;;;;;;;4.82;2.53;;;18.80;91.20;;;;;;4942192;29;20192;-73
2022/08/30 06:45:16;;;;;;;4.40;2.50;;;18.90;91.30;;;;;;4946380;29;20193;-71
2022/08/30 06:47:42;;;;;;;3.42;2.47;;;18.90;91.40;;;;;;4944649;29;20206;-68
2022/08/30 06:50:13;;;;;;;6.50;2.83;;;19.00;91.70;;;;;;4926355;29;20272;-74
2022/08/30 06:52:43;;;;;;;5.30;2.78;;;19.00;92.10;;;;;;4959399;29;20177;-72
2022/08/30 06:55:10;;;;;;;6.95;2.83;;;19.10;92.60;;;;;;4944473;29;20206;-72
2022/08/30 06:57:36;;;;;;;2.65;2.00;;;19.10;92.40;;;;;;4945736;29;20181;-74
2022/08/30 07:00:05;;;;;;;2.90;2.03;;;19.20;92.50;;;;;;4956326;29;20184;-74
2022/08/30 07:02:32;;;;;;;2.70;1.90;;;19.30;92.60;;;;;;4944689;29;20197;-74
2022/08/30 07:05:01;;;;;;;2.22;1.90;;;19.40;92.60;;;;;;4946064;29;20205;-74
2022/08/30 07:07:26;;;;;;;2.30;1.70;;;19.40;92.70;;;;;;4944692;29;20452;-73
2022/08/30 07:09:54;;;;;;;3.03;2.00;;;19.50;92.80;;;;;;4942866;29;20208;-74
2022/08/30 07:12:22;;;;;;;2.22;1.67;;;19.60;92.90;;;;;;4947143;29;20181;-74
2022/08/30 07:14:48;;;;;;;2.60;1.77;;;19.60;93.00;;;;;;4942001;29;20205;-74
2022/08/30 07:19:58;;;;;;;2.58;1.88;;;19.80;93.00;;;;;;4937594;29;20193;-74
2022/08/30 07:22:26;;;;;;;2.92;1.73;;;19.90;93.00;;;;;;4943133;29;20190;-73
2022/08/30 07:24:52;;;;;;;3.08;1.88;;;19.90;93.00;;;;;;4941698;29;20217;-73
2022/08/30 07:27:22;;;;;;;3.42;1.90;;;20.00;93.10;;;;;;4938427;29;20202;-72
2022/08/30 07:29:48;;;;;;;2.72;1.70;;;20.10;93.50;;;;;;4942586;29;20174;-72
2022/08/30 07:32:14;;;;;;;2.35;1.58;;;20.10;93.20;;;;;;4944709;29;20223;-73
2022/08/30 07:34:40;;;;;;;3.50;2.15;;;20.20;93.20;;;;;;4959057;29;20181;-73
2022/08/30 07:37:06;;;;;;;3.22;1.80;;;20.30;93.30;;;;;;4950366;29;20188;-73
2022/08/30 07:39:32;;;;;;;5.55;2.03;;;20.40;93.30;;;;;;4945934;29;20209;-72
2022/08/30 07:41:58;;;;;;;7.82;2.08;;;20.50;93.30;;;;;;4930919;29;20182;-72
2022/08/30 07:44:25;;;;;;;3.78;1.80;;;20.60;93.40;;;;;;4927013;29;20178;-74
2022/08/30 07:46:51;;;;;;;4.07;2.17;;;20.70;93.40;;;;;;4930907;29;20238;-73
2022/08/30 07:49:19;;;;;;;2.88;2.17;;;20.90;93.50;;;;;;4934043;29;20193;-71
2022/08/30 07:51:47;;;;;;;2.30;1.80;;;21.00;93.50;;;;;;4948911;29;20215;-74
2022/08/30 07:54:14;;;;;;;2.35;1.70;;;21.10;93.30;;;;;;4948426;29;20193;-74
2022/08/30 07:56:40;;;;;;;3.67;1.85;;;21.30;93.30;;;;;;4965837;29;20193;-73
2022/08/30 07:59:07;;;;;;;2.60;1.73;;;21.40;93.20;;;;;;4949296;29;20201;-74
2022/08/30 08:01:33;;;;;;;4.45;1.50;;;21.50;93.10;;;;;;4945759;29;20194;-74
2022/08/30 08:03:59;;;;;;;3.78;1.80;;;21.60;93.00;;;;;;4947671;29;20205;-73
2022/08/30 08:06:29;;;;;;;4.63;2.00;;;21.70;92.90;;;;;;4968243;29;20201;-74
2022/08/30 08:08:56;;;;;;;6.47;1.80;;;21.80;92.90;;;;;;4951315;29;20236;-74
2022/08/30 08:11:25;;;;;;;2.65;1.60;;;21.90;92.80;;;;;;4947016;29;20197;-73
2022/08/30 08:13:53;;;;;;;2.88;1.67;;;22.00;92.60;;;;;;4952923;29;20237;-74
2022/08/30 08:16:24;;;;;;;4.53;1.92;;;22.10;92.60;;;;;;4939875;29;20257;-74
2022/08/30 08:18:50;;;;;;;4.18;1.90;;;22.20;92.60;;;;;;4932556;29;20162;-74
2022/08/30 08:21:16;;;;;;;3.05;2.05;;;22.40;92.50;;;;;;4937633;29;20177;-74
2022/08/30 08:23:44;;;;;;;3.13;1.80;;;22.50;92.20;;;;;;4966593;29;20205;-74
2022/08/30 08:26:12;;;;;;;5.93;1.88;;;22.60;92.10;;;;;;4952079;29;20205;-74
2022/08/30 08:28:38;;;;;;;3.25;1.58;;;22.70;91.90;;;;;;4950730;29;20184;-73
2022/08/30 08:31:14;;;;;;;3.33;1.83;;;22.80;91.80;;;;;;4957028;29;20198;-75
2022/08/30 08:33:39;;;;;;;2.72;1.60;;;22.90;91.60;;;;;;4957053;29;20239;-74
2022/08/30 08:36:05;;;;;;;1.75;1.40;;;23.00;91.70;;;;;;4947719;29;20209;-74
2022/08/30 08:38:35;;;;;;;1.95;1.60;;;23.10;91.60;;;;;;4948807;29;20181;-74
2022/08/30 08:41:16;;;;;;;2.90;1.73;;;23.30;91.50;;;;;;4952932;29;20169;-72
2022/08/30 08:43:45;;;;;;;2.17;1.40;;;23.40;91.00;;;;;;4966434;28;20209;-74
2022/08/30 08:46:20;;;;;;;3.42;1.77;;;23.60;91.30;;;;;;4945386;29;20252;-73
2022/08/30 08:48:55;;;;;;;3.25;1.67;;;23.70;90.90;;;;;;4951783;29;20240;-74
2022/08/30 08:54:19;;;;;;;3.35;1.55;;;23.90;90.50;;;;;;4960033;29;20203;-72
2022/08/30 08:56:47;;;;;;;4.07;1.70;;;24.00;90.40;;;;;;4954566;29;20249;-73
2022/08/30 08:59:16;;;;;;;2.33;1.48;;;24.10;90.20;;;;;;4968220;29;20185;-74
2022/08/30 09:01:46;;;;;;;2.10;1.80;;;24.20;90.10;;;;;;4952320;29;20465;-74
2022/08/30 09:04:23;;;;;;;4.32;2.17;;;24.30;90.00;;;;;;4945296;29;20236;-74
2022/08/30 09:07:02;;;;;;;1.83;1.38;;;24.40;89.50;;;;;;4953402;29;20220;-74
2022/08/30 09:09:39;;;;;;;3.08;1.50;;;24.50;88.40;;;;;;4952367;29;20193;-74
2022/08/30 09:12:06;;;;;;;2.55;1.60;;;24.60;88.20;;;;;;4944098;29;20176;-73
2022/08/30 09:14:37;;;;;;;2.72;1.50;;;24.70;88.60;;;;;;4943982;29;20386;-72
2022/08/30 09:17:08;;;;;;;3.17;1.52;;;24.80;88.70;;;;;;4942950;29;20181;-73
2022/08/30 09:19:53;;;;;;;4.45;1.77;;;24.90;88.50;;;;;;4944025;29;20189;-74
2022/08/30 09:22:35;;;;;;;3.10;1.55;;;25.00;87.50;;;;;;4950861;29;20209;-73
2022/08/30 09:25:06;;;;;;;2.60;1.70;;;25.20;87.50;;;;;;4951633;29;20201;-69
2022/08/30 09:27:36;;;;;;;3.17;1.65;;;25.30;87.50;;;;;;4943488;29;20209;-71
2022/08/30 09:30:19;;;;;;;2.25;1.52;;;25.40;87.50;;;;;;4947439;29;20185;-73
2022/08/30 09:33:06;;;;;;;2.33;1.50;;;25.60;86.30;;;;;;4951819;29;20217;-72
2022/08/30 09:35:45;;;;;;;2.55;1.50;;;25.70;85.20;;;;;;4953243;29;20185;-72
2022/08/30 09:38:33;;;;;;;2.15;1.70;;;25.80;83.80;;;;;;4951843;29;20185;-73
2022/08/30 09:41:41;;;;;;;3.05;1.60;;;25.80;84.10;;;;;;4949670;29;20213;-74
2022/08/30 09:44:10;;;;;;;2.38;1.65;;;25.90;83.60;;;;;;4952210;29;20178;-73
2022/08/30 09:46:56;;;;;;;4.28;1.70;;;26.00;84.60;;;;;;4949089;29;20197;-74
2022/08/30 09:49:42;;;;;;;3.50;1.42;;;26.10;83.20;;;;;;4963742;29;20205;-71
2022/08/30 09:52:14;;;;;;;2.50;1.50;;;26.20;82.70;;;;;;4972506;28;20244;-74
2022/08/30 09:54:51;;;;;;;2.67;1.48;;;26.30;83.80;;;;;;4961952;29;20273;-75
2022/08/30 09:57:42;;;;;;;2.40;1.65;;;26.40;82.40;;;;;;4963422;28;20182;-74
2022/08/30 10:00:16;;;;;;;1.95;1.38;;;26.50;81.10;;;;;;4955089;29;20220;-72
2022/08/30 10:02:56;;;;;;;3.15;1.48;;;26.70;81.50;;;;;;4960073;29;20204;-75
2022/08/30 10:05:52;;;;;;;2.15;1.40;;;27.00;80.60;;;;;;4959642;29;20201;-71
2022/08/30 10:08:29;;;;;;;2.88;1.58;;;27.60;79.20;;;;;;4937060;29;20212;-73
2022/08/30 10:11:12;;;;;;;3.38;1.60;;;28.20;79.70;;;;;;4953160;29;20378;-73
2022/08/30 10:14:01;;;;;;;2.42;1.48;;;28.80;76.50;;;;;;4968411;29;20173;-75
2022/08/30 10:16:48;;;;;;;2.53;1.58;;;29.20;74.70;;;;;;4943348;29;20192;-74
2022/08/30 10:19:34;;;;;;;2.58;1.73;;;29.50;72.20;;;;;;4943427;29;20178;-74
2022/08/30 10:22:09;;;;;;;2.38;1.48;;;29.50;72.20;;;;;;4936262;29;20177;-72
2022/08/30 10:24:46;;;;;;;3.20;1.50;;;29.70;72.30;;;;;;4967075;29;20244;-72
2022/08/30 10:27:24;;;;;;;4.35;1.60;;;29.80;71.30;;;;;;4940660;29;20201;-74
2022/08/30 10:30:10;;;;;;;2.78;1.58;;;29.90;71.00;;;;;;4938232;29;20223;-71
2022/08/30 10:32:44;;;;;;;2.08;1.27;;;30.00;70.00;;;;;;4964168;29;20169;-72
2022/08/30 10:35:17;;;;;;;3.22;1.50;;;30.20;71.40;;;;;;4945827;29;20270;-73
2022/08/30 10:37:52;;;;;;;1.95;1.40;;;30.40;69.30;;;;;;4924006;29;20170;-74
2022/08/30 10:43:21;;;;;;;1.95;1.48;;;30.80;67.50;;;;;;4942886;29;20199;-73
2022/08/30 10:45:53;;;;;;;3.10;1.65;;;31.10;66.30;;;;;;4951429;29;20450;-75
2022/08/30 10:48:39;;;;;;;3.25;1.80;;;31.20;65.20;;;;;;4943133;29;20210;-74
2022/08/30 10:51:29;;;;;;;2.55;1.92;;;31.20;64.60;;;;;;4961666;29;20178;-75
2022/08/30 10:54:00;;;;;;;3.47;1.73;;;31.00;63.70;;;;;;4948520;29;20295;-75
2022/08/30 10:56:28;;;;;;;2.55;1.85;;;30.70;64.20;;;;;;4943692;29;20188;-79
2022/08/30 10:58:57;;;;;;;3.05;1.70;;;30.40;63.00;;;;;;4970710;28;20165;-80
2022/08/30 11:01:50;;;;;;;2.03;1.55;;;30.20;63.50;;;;;;4954952;29;20197;-77
2022/08/30 11:04:42;;;;;;;2.55;1.70;;;30.00;62.50;;;;;;4971601;29;20173;-76
2022/08/30 11:08:02;;;;;;;2.90;1.80;;;29.80;62.40;;;;;;4956652;29;20189;-77
2022/08/30 11:10:42;;;;;;;2.30;1.67;;;29.60;62.60;;;;;;4914117;29;20178;-76
2022/08/30 11:13:20;;;;;;;2.25;1.60;;;29.50;64.20;;;;;;4950486;29;20201;-75
2022/08/30 11:15:54;;;;;;;2.97;1.67;;;29.40;63.60;;;;;;4971886;29;20189;-76
2022/08/30 11:18:20;;;;;;;2.53;1.58;;;29.20;62.70;;;;;;4971665;29;20189;-74
2022/08/30 11:20:50;;;;;;;2.75;1.67;;;29.10;63.60;;;;;;4953838;29;20233;-77
2022/08/30 11:23:28;;;;;;;2.35;1.60;;;29.10;63.90;;;;;;4952923;29;20174;-78
2022/08/30 11:26:03;;;;;;;2.47;1.85;;;29.10;63.20;;;;;;4955457;28;20215;-78
2022/08/30 11:28:35;;;;;;;3.08;1.90;;;29.20;63.80;;;;;;4966498;29;20188;-78
2022/08/30 11:31:33;;;;;;;4.47;1.90;;;29.40;63.40;;;;;;4955319;29;20245;-78
2022/08/30 11:34:02;;;;;;;2.60;1.90;;;29.80;63.00;;;;;;4954191;29;20208;-78
2022/08/30 11:36:27;;;;;;;2.10;1.50;;;30.10;64.70;;;;;;4951234;29;20208;-74
2022/08/30 11:38:53;;;;;;;1.98;1.60;;;30.50;64.10;;;;;;4970845;29;20208;-74
2022/08/30 11:42:08;;;;;;;2.53;1.85;;;30.80;63.60;;;;;;4968451;28;20211;-81
2022/08/30 11:44:34;;;;;;;4.00;2.50;;;31.20;58.70;;;;;;4919578;29;20193;-78
2022/08/30 11:47:24;;;;;;;2.50;1.70;;;31.30;61.20;;;;;;4955443;29;20279;-73
2022/08/30 11:50:18;;;;;;;2.03;1.70;;;31.40;60.50;;;;;;4970699;29;20181;-73
2022/08/30 11:53:02;;;;;;;2.38;1.70;;;31.60;58.80;;;;;;4955309;29;20196;-74
2022/08/30 11:56:15;;;;;;;6.10;1.70;;;31.70;59.00;;;;;;4955398;29;20195;-75
2022/08/30 11:58:49;;;;;;;2.40;1.63;;;31.90;57.90;;;;;;4968207;28;20183;-76
2022/08/30 12:01:21;;;;;;;2.78;1.80;;;31.90;58.60;;;;;;4962759;29;20176;-76
2022/08/30 12:04:16;;;;;;;2.33;1.63;;;31.90;58.30;;;;;;4971725;29;20160;-73
2022/08/30 12:07:04;;;;;;;2.42;1.50;;;32.00;57.10;;;;;;4927907;29;20240;-77
2022/08/30 12:09:31;;;;;;;2.80;1.77;;;32.10;58.30;;;;;;4971373;29;20199;-79
2022/08/30 12:12:11;;;;;;;1.77;1.40;;;32.10;58.10;;;;;;4954208;28;20201;-73
2022/08/30 12:14:51;;;;;;;2.17;1.45;;;32.30;57.10;;;;;;4951878;28;20175;-75
2022/08/30 12:20:41;;;;;;;2.33;1.85;;;32.50;55.80;;;;;;4956237;29;20280;-76
2022/08/30 12:23:31;;;;;;;4.03;2.63;;;32.60;55.60;;;;;;4969029;29;20191;-74
2022/08/30 12:26:15;;;;;;;2.65;2.30;;;32.70;55.10;;;;;;4958596;29;20231;-77
2022/08/30 12:28:45;;;;;;;3.35;2.08;;;32.90;54.40;;;;;;4971811;28;20181;-78
2022/08/30 12:31:14;;;;;;;2.72;1.75;;;33.00;55.80;;;;;;4970752;28;20211;-74
2022/08/30 12:33:47;;;;;;;2.08;1.60;;;33.10;55.00;;;;;;4959383;29;20175;-77
2022/08/30 12:36:31;;;;;;;1.80;1.60;;;33.10;55.20;;;;;;4974466;29;20196;-74
2022/08/30 12:39:25;;;;;;;3.30;2.28;;;33.20;53.60;;;;;;4957483;29;20204;-76
2022/08/30 12:41:53;;;;;;;2.83;1.70;;;33.30;53.40;;;;;;4940749;29;20179;-77
2022/08/30 12:44:27;;;;;;;3.10;1.98;;;33.50;54.80;;;;;;4956864;29;20177;-81
2022/08/30 12:47:03;;;;;;;3.00;1.98;;;33.60;53.80;;;;;;4939595;29;20213;-75
2022/08/30 12:49:35;;;;;;;6.15;2.83;;;33.80;53.50;;;;;;4943734;29;20193;-78
2022/08/30 12:52:19;;;;;;;4.47;3.65;;;33.80;53.00;;;;;;4968551;28;20205;-78
2022/08/30 12:54:45;;;;;;;2.85;2.40;;;33.70;51.20;;;;;;4958282;29;20183;-78
2022/08/30 12:57:12;;;;;;;3.08;2.10;;;33.50;52.10;;;;;;4959479;29;20181;-75
2022/08/30 12:59:50;;;;;;;2.58;1.90;;;33.40;52.00;;;;;;4961098;29;20205;-79
2022/08/30 13:02:28;;;;;;;1.90;1.65;;;33.20;51.00;;;;;;4951960;29;20173;-77
2022/08/30 13:04:55;;;;;;;2.45;1.65;;;33.10;51.10;;;;;;4957655;29;20192;-76
2022/08/30 13:07:34;;;;;;;1.77;1.67;;;33.00;51.10;;;;;;4958166;29;20172;-78
2022/08/30 13:10:12;;;;;;;1.80;1.60;;;33.00;51.00;;;;;;4958379;29;20177;-74
2022/08/30 13:13:00;;;;;;;2.60;1.65;;;33.10;51.60;;;;;;4960505;29;20192;-78
2022/08/30 13:15:40;;;;;;;3.22;1.67;;;33.30;51.60;;;;;;4974592;28;20192;-71
2022/08/30 13:18:23;;;;;;;2.85;1.80;;;33.50;52.00;;;;;;4980906;28;20196;-76